sensor_id;sensor_type;location;lat;lon;timestamp;temperature;humidity
7684;DHT22;3884;48.616;12.872;2022-10-15T00:02:21;12.80;99.90
7684;DHT22;3884;48.616;12.872;2022-10-15T00:04:48;12.80;99.90
7684;DHT22;3884;48.616;12.872;2022-10-15T00:07:15;12.80;99.90
7684;DHT22;3884;48.616;12.872;2022-10-15T00:09:42;12.80;99.90
7684;DHT22;3884;48.616;12.872;2022-10-15T00:12:11;12.80;99.90
7684;DHT22;3884;48.616;12.872;2022-10-15T00:14:38;12.80;99.90
7684;DHT22;3884;48.616;12.872;2022-10-15T00:17:05;12.80;99.90
7684;DHT22;3884;48.616;12.872;2022-10-15T00:19:32;12.80;99.90
7684;DHT22;3884;48.616;12.872;2022-10-15T00:21:59;12.80;99.90
7684;DHT22;3884;48.616;12.872;2022-10-15T00:24:27;12.80;99.90
7684;DHT22;3884;48.616;12.872;2022-10-15T00:26:54;12.70;99.90
7684;DHT22;3884;48.616;12.872;2022-10-15T00:29:22;12.70;99.90
7684;DHT22;3884;48.616;12.872;2022-10-15T00:31:53;12.70;99.90
7684;DHT22;3884;48.616;12.872;2022-10-15T00:34:20;12.70;99.90
7684;DHT22;3884;48.616;12.872;2022-10-15T00:36:49;12.70;99.90
7684;DHT22;3884;48.616;12.872;2022-10-15T00:39:16;12.70;99.90
7684;DHT22;3884;48.616;12.872;2022-10-15T00:41:44;12.70;99.90
7684;DHT22;3884;48.616;12.872;2022-10-15T00:44:51;12.70;99.90
7684;DHT22;3884;48.616;12.872;2022-10-15T00:47:23;12.70;99.90
7684;DHT22;3884;48.616;12.872;2022-10-15T00:49:58;12.70;99.90
7684;DHT22;3884;48.616;12.872;2022-10-15T00:52:31;12.80;99.90
7684;DHT22;3884;48.616;12.872;2022-10-15T00:55:04;12.70;99.90
7684;DHT22;3884;48.616;12.872;2022-10-15T00:57:32;12.70;99.90
7684;DHT22;3884;48.616;12.872;2022-10-15T01:00:07;12.70;99.90
7684;DHT22;3884;48.616;12.872;2022-10-15T01:02:35;12.70;99.90
7684;DHT22;3884;48.616;12.872;2022-10-15T01:05:03;12.80;99.90
7684;DHT22;3884;48.616;12.872;2022-10-15T01:07:30;12.70;99.90
7684;DHT22;3884;48.616;12.872;2022-10-15T01:09:57;12.70;99.90
7684;DHT22;3884;48.616;12.872;2022-10-15T01:12:31;12.70;99.90
7684;DHT22;3884;48.616;12.872;2022-10-15T01:15:11;12.70;99.90
7684;DHT22;3884;48.616;12.872;2022-10-15T01:17:46;12.70;99.90
7684;DHT22;3884;48.616;12.872;2022-10-15T01:23:37;12.70;99.90
7684;DHT22;3884;48.616;12.872;2022-10-15T01:29:15;12.70;99.90
7684;DHT22;3884;48.616;12.872;2022-10-15T01:31:53;12.70;99.90
7684;DHT22;3884;48.616;12.872;2022-10-15T01:34:32;12.70;99.90
7684;DHT22;3884;48.616;12.872;2022-10-15T01:37:08;12.70;99.90
7684;DHT22;3884;48.616;12.872;2022-10-15T01:39:40;12.70;99.90
7684;DHT22;3884;48.616;12.872;2022-10-15T01:42:14;12.70;99.90
7684;DHT22;3884;48.616;12.872;2022-10-15T01:44:45;12.70;99.90
7684;DHT22;3884;48.616;12.872;2022-10-15T01:47:41;12.70;99.90
7684;DHT22;3884;48.616;12.872;2022-10-15T01:50:11;12.70;99.90
7684;DHT22;3884;48.616;12.872;2022-10-15T01:52:40;12.70;99.90
7684;DHT22;3884;48.616;12.872;2022-10-15T01:55:10;12.70;99.90
7684;DHT22;3884;48.616;12.872;2022-10-15T01:57:41;12.80;99.90
7684;DHT22;3884;48.616;12.872;2022-10-15T02:00:09;12.90;99.90
7684;DHT22;3884;48.616;12.872;2022-10-15T02:02:41;12.80;99.90
7684;DHT22;3884;48.616;12.872;2022-10-15T02:05:12;12.80;99.90
7684;DHT22;3884;48.616;12.872;2022-10-15T02:07:48;12.80;99.90
7684;DHT22;3884;48.616;12.872;2022-10-15T02:10:27;12.80;99.90
7684;DHT22;3884;48.616;12.872;2022-10-15T02:13:03;12.80;99.90
7684;DHT22;3884;48.616;12.872;2022-10-15T02:15:40;12.90;99.90
7684;DHT22;3884;48.616;12.872;2022-10-15T02:18:17;12.90;99.90
7684;DHT22;3884;48.616;12.872;2022-10-15T02:20:50;12.90;99.90
7684;DHT22;3884;48.616;12.872;2022-10-15T02:23:26;12.80;99.90
7684;DHT22;3884;48.616;12.872;2022-10-15T02:25:59;12.80;99.90
7684;DHT22;3884;48.616;12.872;2022-10-15T02:28:28;12.90;99.90
7684;DHT22;3884;48.616;12.872;2022-10-15T02:30:56;12.80;99.90
7684;DHT22;3884;48.616;12.872;2022-10-15T02:33:25;12.90;99.90
7684;DHT22;3884;48.616;12.872;2022-10-15T02:35:53;12.90;99.90
7684;DHT22;3884;48.616;12.872;2022-10-15T02:38:24;12.90;99.90
7684;DHT22;3884;48.616;12.872;2022-10-15T02:40:53;12.90;99.90
7684;DHT22;3884;48.616;12.872;2022-10-15T02:43:21;12.90;99.90
7684;DHT22;3884;48.616;12.872;2022-10-15T02:45:49;13.00;99.90
7684;DHT22;3884;48.616;12.872;2022-10-15T02:48:18;13.00;99.90
7684;DHT22;3884;48.616;12.872;2022-10-15T02:50:48;13.00;99.90
7684;DHT22;3884;48.616;12.872;2022-10-15T02:53:15;13.00;99.90
7684;DHT22;3884;48.616;12.872;2022-10-15T02:55:42;12.90;99.90
7684;DHT22;3884;48.616;12.872;2022-10-15T02:58:11;12.90;99.90
7684;DHT22;3884;48.616;12.872;2022-10-15T03:00:38;12.90;99.90
7684;DHT22;3884;48.616;12.872;2022-10-15T03:03:05;12.90;99.90
7684;DHT22;3884;48.616;12.872;2022-10-15T03:05:33;12.90;99.90
7684;DHT22;3884;48.616;12.872;2022-10-15T03:08:02;12.90;99.90
7684;DHT22;3884;48.616;12.872;2022-10-15T03:10:30;13.00;99.90
7684;DHT22;3884;48.616;12.872;2022-10-15T03:13:01;13.00;99.90
7684;DHT22;3884;48.616;12.872;2022-10-15T03:15:30;13.00;99.90
7684;DHT22;3884;48.616;12.872;2022-10-15T03:17:57;12.90;99.90
7684;DHT22;3884;48.616;12.872;2022-10-15T03:20:24;13.00;99.90
7684;DHT22;3884;48.616;12.872;2022-10-15T03:22:51;12.90;99.90
7684;DHT22;3884;48.616;12.872;2022-10-15T03:25:20;12.90;99.90
7684;DHT22;3884;48.616;12.872;2022-10-15T03:27:56;12.90;99.90
7684;DHT22;3884;48.616;12.872;2022-10-15T03:30:32;13.00;99.90
7684;DHT22;3884;48.616;12.872;2022-10-15T03:32:59;13.00;99.90
7684;DHT22;3884;48.616;12.872;2022-10-15T03:35:27;12.90;99.90
7684;DHT22;3884;48.616;12.872;2022-10-15T03:37:55;12.80;99.90
7684;DHT22;3884;48.616;12.872;2022-10-15T03:40:24;12.80;99.90
7684;DHT22;3884;48.616;12.872;2022-10-15T03:42:55;12.80;99.90
7684;DHT22;3884;48.616;12.872;2022-10-15T03:45:23;12.80;99.90
7684;DHT22;3884;48.616;12.872;2022-10-15T03:48:05;12.80;99.90
7684;DHT22;3884;48.616;12.872;2022-10-15T03:50:34;12.80;99.90
7684;DHT22;3884;48.616;12.872;2022-10-15T03:53:03;12.70;99.90
7684;DHT22;3884;48.616;12.872;2022-10-15T03:55:31;12.70;99.90
7684;DHT22;3884;48.616;12.872;2022-10-15T03:57:59;12.70;99.90
7684;DHT22;3884;48.616;12.872;2022-10-15T04:00:27;12.60;99.90
7684;DHT22;3884;48.616;12.872;2022-10-15T04:02:58;12.60;99.90
7684;DHT22;3884;48.616;12.872;2022-10-15T04:05:27;12.60;99.90
7684;DHT22;3884;48.616;12.872;2022-10-15T04:08:00;12.60;99.90
7684;DHT22;3884;48.616;12.872;2022-10-15T04:10:32;12.60;99.90
7684;DHT22;3884;48.616;12.872;2022-10-15T04:12:59;12.60;99.90
7684;DHT22;3884;48.616;12.872;2022-10-15T04:15:26;12.60;99.90
7684;DHT22;3884;48.616;12.872;2022-10-15T04:17:58;12.50;99.90
7684;DHT22;3884;48.616;12.872;2022-10-15T04:20:27;12.50;99.90
7684;DHT22;3884;48.616;12.872;2022-10-15T04:23:06;12.50;99.90
7684;DHT22;3884;48.616;12.872;2022-10-15T04:25:38;12.50;99.90
7684;DHT22;3884;48.616;12.872;2022-10-15T04:28:06;12.50;99.90
7684;DHT22;3884;48.616;12.872;2022-10-15T04:30:36;12.50;99.90
7684;DHT22;3884;48.616;12.872;2022-10-15T04:33:06;12.50;99.90
7684;DHT22;3884;48.616;12.872;2022-10-15T04:35:33;12.50;99.90
7684;DHT22;3884;48.616;12.872;2022-10-15T04:38:07;12.50;99.90
7684;DHT22;3884;48.616;12.872;2022-10-15T04:41:11;12.50;99.90
7684;DHT22;3884;48.616;12.872;2022-10-15T04:44:01;12.50;99.90
7684;DHT22;3884;48.616;12.872;2022-10-15T04:46:30;12.50;99.90
7684;DHT22;3884;48.616;12.872;2022-10-15T04:49:02;12.50;99.90
7684;DHT22;3884;48.616;12.872;2022-10-15T04:51:30;12.50;99.90
7684;DHT22;3884;48.616;12.872;2022-10-15T04:54:23;12.50;99.90
7684;DHT22;3884;48.616;12.872;2022-10-15T04:57:18;12.50;99.90
7684;DHT22;3884;48.616;12.872;2022-10-15T04:59:45;12.50;99.90
7684;DHT22;3884;48.616;12.872;2022-10-15T05:02:41;12.50;99.90
7684;DHT22;3884;48.616;12.872;2022-10-15T05:05:23;12.60;99.90
7684;DHT22;3884;48.616;12.872;2022-10-15T05:07:59;12.60;99.90
7684;DHT22;3884;48.616;12.872;2022-10-15T05:10:27;12.50;99.90
7684;DHT22;3884;48.616;12.872;2022-10-15T05:12:56;12.50;99.90
7684;DHT22;3884;48.616;12.872;2022-10-15T05:15:29;12.60;99.90
7684;DHT22;3884;48.616;12.872;2022-10-15T05:17:56;12.60;99.90
7684;DHT22;3884;48.616;12.872;2022-10-15T05:20:31;12.50;99.90
7684;DHT22;3884;48.616;12.872;2022-10-15T05:22:58;12.50;99.90
7684;DHT22;3884;48.616;12.872;2022-10-15T05:25:30;12.50;99.90
7684;DHT22;3884;48.616;12.872;2022-10-15T05:27:59;12.50;99.90
7684;DHT22;3884;48.616;12.872;2022-10-15T05:30:26;12.50;99.90
7684;DHT22;3884;48.616;12.872;2022-10-15T05:32:55;12.50;99.90
7684;DHT22;3884;48.616;12.872;2022-10-15T05:35:22;12.50;99.90
7684;DHT22;3884;48.616;12.872;2022-10-15T05:38:02;12.50;99.90
7684;DHT22;3884;48.616;12.872;2022-10-15T05:40:30;12.50;99.90
7684;DHT22;3884;48.616;12.872;2022-10-15T05:43:05;12.50;99.90
7684;DHT22;3884;48.616;12.872;2022-10-15T05:45:32;12.50;99.90
7684;DHT22;3884;48.616;12.872;2022-10-15T05:48:05;12.50;99.90
7684;DHT22;3884;48.616;12.872;2022-10-15T05:50:33;12.50;99.90
7684;DHT22;3884;48.616;12.872;2022-10-15T05:53:03;12.50;99.90
7684;DHT22;3884;48.616;12.872;2022-10-15T05:55:47;12.50;99.90
7684;DHT22;3884;48.616;12.872;2022-10-15T05:58:16;12.50;99.90
7684;DHT22;3884;48.616;12.872;2022-10-15T06:00:43;12.50;99.90
7684;DHT22;3884;48.616;12.872;2022-10-15T06:03:11;12.50;99.90
7684;DHT22;3884;48.616;12.872;2022-10-15T06:05:39;12.50;99.90
7684;DHT22;3884;48.616;12.872;2022-10-15T06:08:06;12.50;99.90
7684;DHT22;3884;48.616;12.872;2022-10-15T06:10:37;12.60;99.90
7684;DHT22;3884;48.616;12.872;2022-10-15T06:13:04;12.60;99.90
7684;DHT22;3884;48.616;12.872;2022-10-15T06:15:33;12.50;99.90
7684;DHT22;3884;48.616;12.872;2022-10-15T06:18:00;12.50;99.90
7684;DHT22;3884;48.616;12.872;2022-10-15T06:20:27;12.50;99.90
7684;DHT22;3884;48.616;12.872;2022-10-15T06:22:58;12.60;99.90
7684;DHT22;3884;48.616;12.872;2022-10-15T06:25:25;12.60;99.90
7684;DHT22;3884;48.616;12.872;2022-10-15T06:27:53;12.50;99.90
7684;DHT22;3884;48.616;12.872;2022-10-15T06:30:21;12.60;99.90
7684;DHT22;3884;48.616;12.872;2022-10-15T06:32:51;12.60;99.90
7684;DHT22;3884;48.616;12.872;2022-10-15T06:35:20;12.60;99.90
7684;DHT22;3884;48.616;12.872;2022-10-15T06:37:48;12.60;99.90
7684;DHT22;3884;48.616;12.872;2022-10-15T06:40:15;12.60;99.90
7684;DHT22;3884;48.616;12.872;2022-10-15T06:42:42;12.60;99.90
7684;DHT22;3884;48.616;12.872;2022-10-15T06:45:10;12.60;99.90
7684;DHT22;3884;48.616;12.872;2022-10-15T06:47:39;12.60;99.90
7684;DHT22;3884;48.616;12.872;2022-10-15T06:50:08;12.60;99.90
7684;DHT22;3884;48.616;12.872;2022-10-15T06:52:36;12.70;99.90
7684;DHT22;3884;48.616;12.872;2022-10-15T06:55:03;12.70;99.90
7684;DHT22;3884;48.616;12.872;2022-10-15T06:57:30;12.70;99.90
7684;DHT22;3884;48.616;12.872;2022-10-15T06:59:57;12.80;99.90
7684;DHT22;3884;48.616;12.872;2022-10-15T07:02:25;12.80;99.90
7684;DHT22;3884;48.616;12.872;2022-10-15T07:04:52;12.80;99.90
7684;DHT22;3884;48.616;12.872;2022-10-15T07:07:20;12.90;99.90
7684;DHT22;3884;48.616;12.872;2022-10-15T07:09:47;12.90;99.90
7684;DHT22;3884;48.616;12.872;2022-10-15T07:12:18;13.00;99.90
7684;DHT22;3884;48.616;12.872;2022-10-15T07:14:47;13.00;99.90
7684;DHT22;3884;48.616;12.872;2022-10-15T07:17:15;13.10;99.90
7684;DHT22;3884;48.616;12.872;2022-10-15T07:19:42;13.10;99.90
7684;DHT22;3884;48.616;12.872;2022-10-15T07:22:09;13.20;99.90
7684;DHT22;3884;48.616;12.872;2022-10-15T07:24:38;13.20;99.90
7684;DHT22;3884;48.616;12.872;2022-10-15T07:27:05;13.30;99.90
7684;DHT22;3884;48.616;12.872;2022-10-15T07:29:32;13.30;99.90
7684;DHT22;3884;48.616;12.872;2022-10-15T07:31:59;13.30;99.90
7684;DHT22;3884;48.616;12.872;2022-10-15T07:34:26;13.40;99.90
7684;DHT22;3884;48.616;12.872;2022-10-15T07:36:53;13.50;99.90
7684;DHT22;3884;48.616;12.872;2022-10-15T07:39:20;13.50;99.90
7684;DHT22;3884;48.616;12.872;2022-10-15T07:41:48;13.60;99.90
7684;DHT22;3884;48.616;12.872;2022-10-15T07:44:16;13.70;99.90
7684;DHT22;3884;48.616;12.872;2022-10-15T07:46:43;13.70;99.90
7684;DHT22;3884;48.616;12.872;2022-10-15T07:49:10;13.80;99.90
7684;DHT22;3884;48.616;12.872;2022-10-15T07:51:37;13.80;99.90
7684;DHT22;3884;48.616;12.872;2022-10-15T07:54:04;13.90;99.90
7684;DHT22;3884;48.616;12.872;2022-10-15T07:56:31;14.00;99.90
7684;DHT22;3884;48.616;12.872;2022-10-15T07:59:00;14.00;99.90
7684;DHT22;3884;48.616;12.872;2022-10-15T08:01:27;14.10;99.90
7684;DHT22;3884;48.616;12.872;2022-10-15T08:03:54;14.20;99.90
7684;DHT22;3884;48.616;12.872;2022-10-15T08:06:23;14.20;99.90
7684;DHT22;3884;48.616;12.872;2022-10-15T08:08:50;14.30;99.90
7684;DHT22;3884;48.616;12.872;2022-10-15T08:11:17;14.40;99.90
7684;DHT22;3884;48.616;12.872;2022-10-15T08:13:44;14.40;99.90
7684;DHT22;3884;48.616;12.872;2022-10-15T08:16:15;14.50;99.90
7684;DHT22;3884;48.616;12.872;2022-10-15T08:18:51;14.60;99.90
7684;DHT22;3884;48.616;12.872;2022-10-15T08:21:18;14.60;99.90
7684;DHT22;3884;48.616;12.872;2022-10-15T08:23:45;14.70;99.90
7684;DHT22;3884;48.616;12.872;2022-10-15T08:26:12;14.80;99.90
7684;DHT22;3884;48.616;12.872;2022-10-15T08:28:39;14.80;99.90
7684;DHT22;3884;48.616;12.872;2022-10-15T08:31:06;14.90;99.90
7684;DHT22;3884;48.616;12.872;2022-10-15T08:33:36;15.00;99.90
7684;DHT22;3884;48.616;12.872;2022-10-15T08:36:04;15.00;99.90
7684;DHT22;3884;48.616;12.872;2022-10-15T08:38:31;15.10;99.90
7684;DHT22;3884;48.616;12.872;2022-10-15T08:41:00;15.10;99.90
7684;DHT22;3884;48.616;12.872;2022-10-15T08:43:32;15.20;99.90
7684;DHT22;3884;48.616;12.872;2022-10-15T08:46:03;15.20;99.90
7684;DHT22;3884;48.616;12.872;2022-10-15T08:48:33;15.20;99.90
7684;DHT22;3884;48.616;12.872;2022-10-15T08:51:08;15.30;99.90
7684;DHT22;3884;48.616;12.872;2022-10-15T08:53:39;15.30;99.90
7684;DHT22;3884;48.616;12.872;2022-10-15T08:56:14;15.30;99.90
7684;DHT22;3884;48.616;12.872;2022-10-15T08:58:47;15.30;99.90
7684;DHT22;3884;48.616;12.872;2022-10-15T09:01:22;15.30;99.90
7684;DHT22;3884;48.616;12.872;2022-10-15T09:03:59;15.40;99.90
7684;DHT22;3884;48.616;12.872;2022-10-15T09:06:32;15.30;99.90
7684;DHT22;3884;48.616;12.872;2022-10-15T09:09:06;15.30;99.90
7684;DHT22;3884;48.616;12.872;2022-10-15T09:11:43;15.30;99.90
7684;DHT22;3884;48.616;12.872;2022-10-15T09:14:15;15.30;99.90
7684;DHT22;3884;48.616;12.872;2022-10-15T09:16:46;15.30;99.90
7684;DHT22;3884;48.616;12.872;2022-10-15T09:19:16;15.40;99.90
7684;DHT22;3884;48.616;12.872;2022-10-15T09:21:46;15.40;99.90
7684;DHT22;3884;48.616;12.872;2022-10-15T09:24:18;15.40;99.90
7684;DHT22;3884;48.616;12.872;2022-10-15T09:27:02;15.50;99.90
7684;DHT22;3884;48.616;12.872;2022-10-15T09:29:38;15.40;99.90
7684;DHT22;3884;48.616;12.872;2022-10-15T09:32:12;15.50;99.90
7684;DHT22;3884;48.616;12.872;2022-10-15T09:34:44;15.50;99.90
7684;DHT22;3884;48.616;12.872;2022-10-15T09:37:18;15.50;99.90
7684;DHT22;3884;48.616;12.872;2022-10-15T09:40:14;15.50;99.90
7684;DHT22;3884;48.616;12.872;2022-10-15T09:42:44;15.60;99.90
7684;DHT22;3884;48.616;12.872;2022-10-15T09:45:14;15.60;99.90
7684;DHT22;3884;48.616;12.872;2022-10-15T09:47:43;15.60;99.90
7684;DHT22;3884;48.616;12.872;2022-10-15T09:50:11;15.60;99.90
7684;DHT22;3884;48.616;12.872;2022-10-15T09:52:49;15.60;99.90
7684;DHT22;3884;48.616;12.872;2022-10-15T09:55:36;15.70;99.90
7684;DHT22;3884;48.616;12.872;2022-10-15T09:58:09;15.70;99.90
7684;DHT22;3884;48.616;12.872;2022-10-15T10:00:57;15.70;99.90
7684;DHT22;3884;48.616;12.872;2022-10-15T10:03:30;15.80;99.90
7684;DHT22;3884;48.616;12.872;2022-10-15T10:06:00;15.80;99.90
7684;DHT22;3884;48.616;12.872;2022-10-15T10:08:34;15.90;99.90
7684;DHT22;3884;48.616;12.872;2022-10-15T10:11:06;15.90;99.90
7684;DHT22;3884;48.616;12.872;2022-10-15T10:13:38;15.90;99.90
7684;DHT22;3884;48.616;12.872;2022-10-15T10:16:09;16.00;99.90
7684;DHT22;3884;48.616;12.872;2022-10-15T10:18:37;16.00;99.90
7684;DHT22;3884;48.616;12.872;2022-10-15T10:21:08;16.00;99.90
7684;DHT22;3884;48.616;12.872;2022-10-15T10:23:47;16.00;99.90
7684;DHT22;3884;48.616;12.872;2022-10-15T10:26:14;16.00;99.90
7684;DHT22;3884;48.616;12.872;2022-10-15T10:28:47;15.90;99.90
7684;DHT22;3884;48.616;12.872;2022-10-15T10:31:16;15.80;99.90
7684;DHT22;3884;48.616;12.872;2022-10-15T10:33:45;15.80;99.90
7684;DHT22;3884;48.616;12.872;2022-10-15T10:36:24;15.80;99.90
7684;DHT22;3884;48.616;12.872;2022-10-15T10:39:00;15.80;99.90
7684;DHT22;3884;48.616;12.872;2022-10-15T10:41:49;15.80;99.90
7684;DHT22;3884;48.616;12.872;2022-10-15T10:44:27;15.90;99.90
7684;DHT22;3884;48.616;12.872;2022-10-15T10:47:17;16.10;99.90
7684;DHT22;3884;48.616;12.872;2022-10-15T10:49:46;16.20;99.90
7684;DHT22;3884;48.616;12.872;2022-10-15T10:52:23;16.30;99.90
7684;DHT22;3884;48.616;12.872;2022-10-15T10:54:57;16.30;99.90
7684;DHT22;3884;48.616;12.872;2022-10-15T10:57:31;16.40;99.90
7684;DHT22;3884;48.616;12.872;2022-10-15T11:00:03;16.40;99.90
7684;DHT22;3884;48.616;12.872;2022-10-15T11:02:32;16.40;99.90
7684;DHT22;3884;48.616;12.872;2022-10-15T11:05:01;16.40;99.90
7684;DHT22;3884;48.616;12.872;2022-10-15T11:07:35;16.50;99.90
7684;DHT22;3884;48.616;12.872;2022-10-15T11:10:09;16.50;99.90
7684;DHT22;3884;48.616;12.872;2022-10-15T11:12:50;16.60;99.90
7684;DHT22;3884;48.616;12.872;2022-10-15T11:15:29;16.60;99.90
7684;DHT22;3884;48.616;12.872;2022-10-15T11:18:19;16.60;99.90
7684;DHT22;3884;48.616;12.872;2022-10-15T11:20:53;16.70;99.90
7684;DHT22;3884;48.616;12.872;2022-10-15T11:23:37;16.70;99.90
7684;DHT22;3884;48.616;12.872;2022-10-15T11:26:21;16.90;99.90
7684;DHT22;3884;48.616;12.872;2022-10-15T11:28:58;16.90;99.90
7684;DHT22;3884;48.616;12.872;2022-10-15T11:31:34;16.90;99.90
7684;DHT22;3884;48.616;12.872;2022-10-15T11:34:16;17.00;99.90
7684;DHT22;3884;48.616;12.872;2022-10-15T11:36:57;17.10;99.90
7684;DHT22;3884;48.616;12.872;2022-10-15T11:39:41;17.20;99.90
7684;DHT22;3884;48.616;12.872;2022-10-15T11:42:17;17.30;99.90
7684;DHT22;3884;48.616;12.872;2022-10-15T11:45:06;17.40;99.90
7684;DHT22;3884;48.616;12.872;2022-10-15T11:47:46;17.40;99.90
7684;DHT22;3884;48.616;12.872;2022-10-15T11:50:26;17.40;99.90
7684;DHT22;3884;48.616;12.872;2022-10-15T11:55:57;17.60;99.90
7684;DHT22;3884;48.616;12.872;2022-10-15T11:58:29;17.70;99.90
7684;DHT22;3884;48.616;12.872;2022-10-15T12:01:01;17.80;99.90
7684;DHT22;3884;48.616;12.872;2022-10-15T12:03:36;17.80;99.90
7684;DHT22;3884;48.616;12.872;2022-10-15T12:06:09;17.80;99.90
7684;DHT22;3884;48.616;12.872;2022-10-15T12:08:40;17.80;99.90
7684;DHT22;3884;48.616;12.872;2022-10-15T12:11:28;17.80;99.90
7684;DHT22;3884;48.616;12.872;2022-10-15T12:14:06;17.90;99.90
7684;DHT22;3884;48.616;12.872;2022-10-15T12:16:45;17.80;99.90
7684;DHT22;3884;48.616;12.872;2022-10-15T12:19:16;17.90;99.90
7684;DHT22;3884;48.616;12.872;2022-10-15T12:22:01;17.90;99.90
7684;DHT22;3884;48.616;12.872;2022-10-15T12:24:51;18.00;99.90
7684;DHT22;3884;48.616;12.872;2022-10-15T12:27:23;18.10;99.90
7684;DHT22;3884;48.616;12.872;2022-10-15T12:30:20;18.00;99.90
7684;DHT22;3884;48.616;12.872;2022-10-15T12:32:48;18.10;99.90
7684;DHT22;3884;48.616;12.872;2022-10-15T12:35:22;18.10;99.90
7684;DHT22;3884;48.616;12.872;2022-10-15T12:37:49;18.10;99.90
7684;DHT22;3884;48.616;12.872;2022-10-15T12:40:26;18.10;99.90
7684;DHT22;3884;48.616;12.872;2022-10-15T12:42:56;18.20;99.90
7684;DHT22;3884;48.616;12.872;2022-10-15T12:45:32;18.20;99.90
7684;DHT22;3884;48.616;12.872;2022-10-15T12:48:19;18.20;99.90
7684;DHT22;3884;48.616;12.872;2022-10-15T12:50:47;18.20;99.90
7684;DHT22;3884;48.616;12.872;2022-10-15T12:53:29;18.20;99.90
7684;DHT22;3884;48.616;12.872;2022-10-15T12:56:12;18.10;99.90
7684;DHT22;3884;48.616;12.872;2022-10-15T12:58:43;18.20;99.90
7684;DHT22;3884;48.616;12.872;2022-10-15T13:01:29;18.20;99.90
7684;DHT22;3884;48.616;12.872;2022-10-15T13:04:16;18.20;99.90
7684;DHT22;3884;48.616;12.872;2022-10-15T13:06:44;18.10;99.90
7684;DHT22;3884;48.616;12.872;2022-10-15T13:09:23;18.10;99.90
7684;DHT22;3884;48.616;12.872;2022-10-15T13:11:53;18.00;99.90
7684;DHT22;3884;48.616;12.872;2022-10-15T13:14:27;17.90;99.90
7684;DHT22;3884;48.616;12.872;2022-10-15T13:17:00;17.70;99.90
7684;DHT22;3884;48.616;12.872;2022-10-15T13:19:29;17.70;99.90
7684;DHT22;3884;48.616;12.872;2022-10-15T13:22:00;17.60;99.90
7684;DHT22;3884;48.616;12.872;2022-10-15T13:24:29;17.50;99.90
7684;DHT22;3884;48.616;12.872;2022-10-15T13:26:59;17.40;99.90
7684;DHT22;3884;48.616;12.872;2022-10-15T13:29:27;17.40;99.90
7684;DHT22;3884;48.616;12.872;2022-10-15T13:31:55;17.30;99.90
7684;DHT22;3884;48.616;12.872;2022-10-15T13:34:29;17.40;99.90
7684;DHT22;3884;48.616;12.872;2022-10-15T13:36:58;17.40;99.90
7684;DHT22;3884;48.616;12.872;2022-10-15T13:39:30;17.40;99.90
7684;DHT22;3884;48.616;12.872;2022-10-15T13:42:09;17.50;99.90
7684;DHT22;3884;48.616;12.872;2022-10-15T13:44:39;17.60;99.90
7684;DHT22;3884;48.616;12.872;2022-10-15T13:47:25;17.70;99.90
7684;DHT22;3884;48.616;12.872;2022-10-15T13:50:17;17.80;99.90
7684;DHT22;3884;48.616;12.872;2022-10-15T13:52:46;17.80;99.90
7684;DHT22;3884;48.616;12.872;2022-10-15T13:55:17;17.80;99.90
7684;DHT22;3884;48.616;12.872;2022-10-15T13:57:45;17.90;99.90
7684;DHT22;3884;48.616;12.872;2022-10-15T14:00:21;17.90;99.90
7684;DHT22;3884;48.616;12.872;2022-10-15T14:05:51;17.80;99.90
7684;DHT22;3884;48.616;12.872;2022-10-15T14:08:25;17.90;99.90
7684;DHT22;3884;48.616;12.872;2022-10-15T14:10:54;17.90;99.90
7684;DHT22;3884;48.616;12.872;2022-10-15T14:13:23;17.80;99.90
7684;DHT22;3884;48.616;12.872;2022-10-15T14:16:00;17.80;99.90
7684;DHT22;3884;48.616;12.872;2022-10-15T14:18:34;17.90;99.90
7684;DHT22;3884;48.616;12.872;2022-10-15T14:21:10;17.90;99.90
7684;DHT22;3884;48.616;12.872;2022-10-15T14:23:38;17.80;99.90
7684;DHT22;3884;48.616;12.872;2022-10-15T14:26:06;17.80;99.90
7684;DHT22;3884;48.616;12.872;2022-10-15T14:28:35;17.70;99.90
7684;DHT22;3884;48.616;12.872;2022-10-15T14:31:02;17.60;99.90
7684;DHT22;3884;48.616;12.872;2022-10-15T14:33:40;17.50;99.90
7684;DHT22;3884;48.616;12.872;2022-10-15T14:38:54;17.50;99.90
7684;DHT22;3884;48.616;12.872;2022-10-15T14:41:27;17.40;99.90
7684;DHT22;3884;48.616;12.872;2022-10-15T14:44:16;17.40;99.90
7684;DHT22;3884;48.616;12.872;2022-10-15T14:46:45;17.40;99.90
7684;DHT22;3884;48.616;12.872;2022-10-15T14:49:19;17.40;99.90
7684;DHT22;3884;48.616;12.872;2022-10-15T14:52:02;17.50;99.90
7684;DHT22;3884;48.616;12.872;2022-10-15T14:54:37;17.60;99.90
7684;DHT22;3884;48.616;12.872;2022-10-15T14:57:15;17.70;99.90
7684;DHT22;3884;48.616;12.872;2022-10-15T14:59:43;17.70;99.90
7684;DHT22;3884;48.616;12.872;2022-10-15T15:02:14;17.60;99.90
7684;DHT22;3884;48.616;12.872;2022-10-15T15:04:44;17.60;99.90
7684;DHT22;3884;48.616;12.872;2022-10-15T15:07:16;17.60;99.90
7684;DHT22;3884;48.616;12.872;2022-10-15T15:09:46;17.80;99.90
7684;DHT22;3884;48.616;12.872;2022-10-15T15:12:17;17.90;99.90
7684;DHT22;3884;48.616;12.872;2022-10-15T15:14:45;18.00;99.90
7684;DHT22;3884;48.616;12.872;2022-10-15T15:17:19;17.90;99.90
7684;DHT22;3884;48.616;12.872;2022-10-15T15:19:47;17.90;99.90
7684;DHT22;3884;48.616;12.872;2022-10-15T15:22:17;17.80;99.90
7684;DHT22;3884;48.616;12.872;2022-10-15T15:24:46;17.70;99.90
7684;DHT22;3884;48.616;12.872;2022-10-15T15:27:22;17.60;99.90
7684;DHT22;3884;48.616;12.872;2022-10-15T15:29:50;17.50;99.90
7684;DHT22;3884;48.616;12.872;2022-10-15T15:32:18;17.50;99.90
7684;DHT22;3884;48.616;12.872;2022-10-15T15:34:45;17.50;99.90
7684;DHT22;3884;48.616;12.872;2022-10-15T15:37:14;17.70;99.90
7684;DHT22;3884;48.616;12.872;2022-10-15T15:39:43;17.80;99.90
7684;DHT22;3884;48.616;12.872;2022-10-15T15:42:14;17.80;99.90
7684;DHT22;3884;48.616;12.872;2022-10-15T15:44:42;17.80;99.90
7684;DHT22;3884;48.616;12.872;2022-10-15T15:47:10;17.80;99.90
7684;DHT22;3884;48.616;12.872;2022-10-15T15:49:38;17.70;99.90
7684;DHT22;3884;48.616;12.872;2022-10-15T15:52:06;17.50;99.90
7684;DHT22;3884;48.616;12.872;2022-10-15T15:54:35;17.20;99.90
7684;DHT22;3884;48.616;12.872;2022-10-15T15:57:03;17.10;99.90
7684;DHT22;3884;48.616;12.872;2022-10-15T15:59:30;17.00;99.90
7684;DHT22;3884;48.616;12.872;2022-10-15T16:01:58;16.80;99.90
7684;DHT22;3884;48.616;12.872;2022-10-15T16:04:25;16.70;99.90
7684;DHT22;3884;48.616;12.872;2022-10-15T16:06:52;16.50;99.90
7684;DHT22;3884;48.616;12.872;2022-10-15T16:09:19;16.30;99.90
7684;DHT22;3884;48.616;12.872;2022-10-15T16:11:48;16.10;99.90
7684;DHT22;3884;48.616;12.872;2022-10-15T16:14:16;16.10;99.90
7684;DHT22;3884;48.616;12.872;2022-10-15T16:16:44;16.10;99.90
7684;DHT22;3884;48.616;12.872;2022-10-15T16:19:12;16.00;99.90
7684;DHT22;3884;48.616;12.872;2022-10-15T16:21:39;15.90;99.90
7684;DHT22;3884;48.616;12.872;2022-10-15T16:24:07;15.70;99.90
7684;DHT22;3884;48.616;12.872;2022-10-15T16:26:34;15.60;99.90
7684;DHT22;3884;48.616;12.872;2022-10-15T16:29:01;15.70;99.90
7684;DHT22;3884;48.616;12.872;2022-10-15T16:31:29;15.80;99.90